sensor_id;sensor_type;location;lat;lon;timestamp;temperature;humidity
24802;DHT22;12898;50.520;12.152;2023-07-24T00:02:09;19.60;80.50
24802;DHT22;12898;50.520;12.152;2023-07-24T00:04:35;19.60;80.70
24802;DHT22;12898;50.520;12.152;2023-07-24T00:07:01;19.60;80.80
24802;DHT22;12898;50.520;12.152;2023-07-24T00:09:26;19.50;80.70
24802;DHT22;12898;50.520;12.152;2023-07-24T00:11:52;19.50;80.90
24802;DHT22;12898;50.520;12.152;2023-07-24T00:14:18;19.50;81.10
24802;DHT22;12898;50.520;12.152;2023-07-24T00:16:43;19.50;81.30
24802;DHT22;12898;50.520;12.152;2023-07-24T00:19:09;19.50;81.10
24802;DHT22;12898;50.520;12.152;2023-07-24T00:21:35;19.50;81.40
24802;DHT22;12898;50.520;12.152;2023-07-24T00:24:00;19.50;81.60
24802;DHT22;12898;50.520;12.152;2023-07-24T00:26:26;19.50;81.80
24802;DHT22;12898;50.520;12.152;2023-07-24T00:28:52;19.40;82.20
24802;DHT22;12898;50.520;12.152;2023-07-24T00:31:17;19.40;81.80
24802;DHT22;12898;50.520;12.152;2023-07-24T00:33:43;19.40;82.60
24802;DHT22;12898;50.520;12.152;2023-07-24T00:36:09;19.30;83.10
24802;DHT22;12898;50.520;12.152;2023-07-24T00:38:34;19.30;83.80
24802;DHT22;12898;50.520;12.152;2023-07-24T00:41:00;19.20;83.70
24802;DHT22;12898;50.520;12.152;2023-07-24T00:43:26;19.20;84.80
24802;DHT22;12898;50.520;12.152;2023-07-24T00:45:51;19.10;84.80
24802;DHT22;12898;50.520;12.152;2023-07-24T00:48:19;19.10;84.90
24802;DHT22;12898;50.520;12.152;2023-07-24T00:50:45;19.10;84.60
24802;DHT22;12898;50.520;12.152;2023-07-24T00:53:16;19.10;85.60
24802;DHT22;12898;50.520;12.152;2023-07-24T00:55:42;19.10;85.30
24802;DHT22;12898;50.520;12.152;2023-07-24T00:58:10;19.10;85.80
24802;DHT22;12898;50.520;12.152;2023-07-24T01:00:38;19.00;86.30
24802;DHT22;12898;50.520;12.152;2023-07-24T01:03:04;19.00;86.60
24802;DHT22;12898;50.520;12.152;2023-07-24T01:05:30;19.00;87.00
24802;DHT22;12898;50.520;12.152;2023-07-24T01:07:56;19.00;86.60
24802;DHT22;12898;50.520;12.152;2023-07-24T01:10:22;19.00;86.90
24802;DHT22;12898;50.520;12.152;2023-07-24T01:13:02;19.00;86.80
24802;DHT22;12898;50.520;12.152;2023-07-24T01:15:31;19.10;86.60
24802;DHT22;12898;50.520;12.152;2023-07-24T01:18:12;19.00;86.50
24802;DHT22;12898;50.520;12.152;2023-07-24T01:20:51;19.00;86.40
24802;DHT22;12898;50.520;12.152;2023-07-24T01:26:09;19.00;86.30
24802;DHT22;12898;50.520;12.152;2023-07-24T01:28:36;19.00;86.10
24802;DHT22;12898;50.520;12.152;2023-07-24T01:31:01;19.10;85.50
24802;DHT22;12898;50.520;12.152;2023-07-24T01:33:27;19.10;86.20
24802;DHT22;12898;50.520;12.152;2023-07-24T01:35:55;19.10;86.00
24802;DHT22;12898;50.520;12.152;2023-07-24T01:38:27;19.00;86.10
24802;DHT22;12898;50.520;12.152;2023-07-24T01:40:56;19.00;86.30
24802;DHT22;12898;50.520;12.152;2023-07-24T01:43:23;19.00;85.80
24802;DHT22;12898;50.520;12.152;2023-07-24T01:45:51;19.10;85.50
24802;DHT22;12898;50.520;12.152;2023-07-24T01:48:17;19.10;85.50
24802;DHT22;12898;50.520;12.152;2023-07-24T01:50:42;19.10;85.60
24802;DHT22;12898;50.520;12.152;2023-07-24T01:53:08;19.10;85.60
24802;DHT22;12898;50.520;12.152;2023-07-24T01:55:35;19.10;85.50
24802;DHT22;12898;50.520;12.152;2023-07-24T01:58:00;19.10;84.90
24802;DHT22;12898;50.520;12.152;2023-07-24T02:00:26;19.10;85.10
24802;DHT22;12898;50.520;12.152;2023-07-24T02:02:52;19.10;85.10
24802;DHT22;12898;50.520;12.152;2023-07-24T02:05:17;19.10;84.60
24802;DHT22;12898;50.520;12.152;2023-07-24T02:07:43;19.10;84.80
24802;DHT22;12898;50.520;12.152;2023-07-24T02:10:09;19.10;84.00
24802;DHT22;12898;50.520;12.152;2023-07-24T02:12:35;19.20;83.70
24802;DHT22;12898;50.520;12.152;2023-07-24T02:15:01;19.20;83.70
24802;DHT22;12898;50.520;12.152;2023-07-24T02:17:26;19.10;84.20
24802;DHT22;12898;50.520;12.152;2023-07-24T02:19:52;19.10;84.20
24802;DHT22;12898;50.520;12.152;2023-07-24T02:22:18;19.10;83.80
24802;DHT22;12898;50.520;12.152;2023-07-24T02:24:43;19.10;84.20
24802;DHT22;12898;50.520;12.152;2023-07-24T02:27:12;19.10;84.60
24802;DHT22;12898;50.520;12.152;2023-07-24T02:29:39;19.00;84.60
24802;DHT22;12898;50.520;12.152;2023-07-24T02:32:05;19.00;84.30
24802;DHT22;12898;50.520;12.152;2023-07-24T02:34:31;19.10;84.60
24802;DHT22;12898;50.520;12.152;2023-07-24T02:36:57;19.00;84.20
24802;DHT22;12898;50.520;12.152;2023-07-24T02:39:22;19.10;83.70
24802;DHT22;12898;50.520;12.152;2023-07-24T02:41:48;19.10;83.30
24802;DHT22;12898;50.520;12.152;2023-07-24T02:44:14;19.20;83.20
24802;DHT22;12898;50.520;12.152;2023-07-24T02:46:40;19.20;83.10
24802;DHT22;12898;50.520;12.152;2023-07-24T02:49:05;19.20;82.90
24802;DHT22;12898;50.520;12.152;2023-07-24T02:51:31;19.20;82.90
24802;DHT22;12898;50.520;12.152;2023-07-24T02:53:58;19.20;82.20
24802;DHT22;12898;50.520;12.152;2023-07-24T02:56:23;19.20;82.70
24802;DHT22;12898;50.520;12.152;2023-07-24T02:58:49;19.20;82.50
24802;DHT22;12898;50.520;12.152;2023-07-24T03:01:15;19.20;82.70
24802;DHT22;12898;50.520;12.152;2023-07-24T03:03:41;19.20;82.20
24802;DHT22;12898;50.520;12.152;2023-07-24T03:06:07;19.20;82.90
24802;DHT22;12898;50.520;12.152;2023-07-24T03:08:33;19.20;82.90
24802;DHT22;12898;50.520;12.152;2023-07-24T03:10:59;19.20;82.60
24802;DHT22;12898;50.520;12.152;2023-07-24T03:13:25;19.20;82.60
24802;DHT22;12898;50.520;12.152;2023-07-24T03:15:55;19.10;82.40
24802;DHT22;12898;50.520;12.152;2023-07-24T03:18:21;19.10;83.00
24802;DHT22;12898;50.520;12.152;2023-07-24T03:20:46;19.10;83.20
24802;DHT22;12898;50.520;12.152;2023-07-24T03:23:12;19.00;83.40
24802;DHT22;12898;50.520;12.152;2023-07-24T03:25:38;19.10;83.40
24802;DHT22;12898;50.520;12.152;2023-07-24T03:28:04;19.00;83.50
24802;DHT22;12898;50.520;12.152;2023-07-24T03:30:30;19.00;83.60
24802;DHT22;12898;50.520;12.152;2023-07-24T03:32:55;19.00;84.00
24802;DHT22;12898;50.520;12.152;2023-07-24T03:35:22;18.90;84.20
24802;DHT22;12898;50.520;12.152;2023-07-24T03:37:47;18.90;84.60
24802;DHT22;12898;50.520;12.152;2023-07-24T03:40:13;18.90;84.80
24802;DHT22;12898;50.520;12.152;2023-07-24T03:42:39;18.90;84.70
24802;DHT22;12898;50.520;12.152;2023-07-24T03:45:06;18.90;84.60
24802;DHT22;12898;50.520;12.152;2023-07-24T03:47:32;18.90;85.10
24802;DHT22;12898;50.520;12.152;2023-07-24T03:49:57;18.90;85.50
24802;DHT22;12898;50.520;12.152;2023-07-24T03:52:23;18.90;85.70
24802;DHT22;12898;50.520;12.152;2023-07-24T03:54:49;18.90;85.70
24802;DHT22;12898;50.520;12.152;2023-07-24T03:57:16;18.80;86.40
24802;DHT22;12898;50.520;12.152;2023-07-24T03:59:41;18.70;86.80
24802;DHT22;12898;50.520;12.152;2023-07-24T04:02:07;18.70;88.10
24802;DHT22;12898;50.520;12.152;2023-07-24T04:04:33;18.60;89.00
24802;DHT22;12898;50.520;12.152;2023-07-24T04:06:58;18.60;88.90
24802;DHT22;12898;50.520;12.152;2023-07-24T04:09:24;18.60;89.50
24802;DHT22;12898;50.520;12.152;2023-07-24T04:11:50;18.60;90.20
24802;DHT22;12898;50.520;12.152;2023-07-24T04:14:16;18.50;90.20
24802;DHT22;12898;50.520;12.152;2023-07-24T04:16:41;18.50;90.30
24802;DHT22;12898;50.520;12.152;2023-07-24T04:19:07;18.40;90.70
24802;DHT22;12898;50.520;12.152;2023-07-24T04:21:34;18.40;91.10
24802;DHT22;12898;50.520;12.152;2023-07-24T04:23:59;18.30;91.30
24802;DHT22;12898;50.520;12.152;2023-07-24T04:26:25;18.30;91.20
24802;DHT22;12898;50.520;12.152;2023-07-24T04:28:51;18.40;91.20
24802;DHT22;12898;50.520;12.152;2023-07-24T04:31:16;18.30;91.40
24802;DHT22;12898;50.520;12.152;2023-07-24T04:33:42;18.30;91.30
24802;DHT22;12898;50.520;12.152;2023-07-24T04:36:08;18.30;91.80
24802;DHT22;12898;50.520;12.152;2023-07-24T04:38:33;18.30;92.20
24802;DHT22;12898;50.520;12.152;2023-07-24T04:41:02;18.30;92.10
24802;DHT22;12898;50.520;12.152;2023-07-24T04:43:28;18.30;92.40
24802;DHT22;12898;50.520;12.152;2023-07-24T04:45:54;18.40;92.20
24802;DHT22;12898;50.520;12.152;2023-07-24T04:48:20;18.50;92.50
24802;DHT22;12898;50.520;12.152;2023-07-24T04:50:46;18.60;92.40
24802;DHT22;12898;50.520;12.152;2023-07-24T04:53:11;18.70;92.10
24802;DHT22;12898;50.520;12.152;2023-07-24T04:55:37;18.70;92.00
24802;DHT22;12898;50.520;12.152;2023-07-24T04:58:03;18.80;91.70
24802;DHT22;12898;50.520;12.152;2023-07-24T05:00:28;18.90;92.20
24802;DHT22;12898;50.520;12.152;2023-07-24T05:02:54;18.90;91.80
24802;DHT22;12898;50.520;12.152;2023-07-24T05:05:20;18.90;92.10
24802;DHT22;12898;50.520;12.152;2023-07-24T05:07:45;19.00;91.80
24802;DHT22;12898;50.520;12.152;2023-07-24T05:10:11;19.00;91.90
24802;DHT22;12898;50.520;12.152;2023-07-24T05:12:41;19.10;92.00
24802;DHT22;12898;50.520;12.152;2023-07-24T05:15:08;19.20;92.20
24802;DHT22;12898;50.520;12.152;2023-07-24T05:17:33;19.20;92.10
24802;DHT22;12898;50.520;12.152;2023-07-24T05:19:59;19.20;92.70
24802;DHT22;12898;50.520;12.152;2023-07-24T05:22:25;19.20;92.70
24802;DHT22;12898;50.520;12.152;2023-07-24T05:24:50;19.20;93.40
24802;DHT22;12898;50.520;12.152;2023-07-24T05:27:16;19.20;93.50
24802;DHT22;12898;50.520;12.152;2023-07-24T05:29:42;19.10;93.90
24802;DHT22;12898;50.520;12.152;2023-07-24T05:32:08;19.20;94.30
24802;DHT22;12898;50.520;12.152;2023-07-24T05:34:33;19.20;94.40
24802;DHT22;12898;50.520;12.152;2023-07-24T05:36:59;19.20;94.80
24802;DHT22;12898;50.520;12.152;2023-07-24T05:39:25;19.20;95.10
24802;DHT22;12898;50.520;12.152;2023-07-24T05:41:50;19.20;95.70
24802;DHT22;12898;50.520;12.152;2023-07-24T05:44:16;19.20;96.10
24802;DHT22;12898;50.520;12.152;2023-07-24T05:46:42;19.20;97.40
24802;DHT22;12898;50.520;12.152;2023-07-24T05:49:07;19.30;98.10
24802;DHT22;12898;50.520;12.152;2023-07-24T05:51:33;19.40;98.20
24802;DHT22;12898;50.520;12.152;2023-07-24T05:53:59;19.50;98.30
24802;DHT22;12898;50.520;12.152;2023-07-24T05:56:24;19.60;98.50
24802;DHT22;12898;50.520;12.152;2023-07-24T05:58:50;19.70;98.60
24802;DHT22;12898;50.520;12.152;2023-07-24T06:01:16;19.90;99.10
24802;DHT22;12898;50.520;12.152;2023-07-24T06:03:41;20.00;98.90
24802;DHT22;12898;50.520;12.152;2023-07-24T06:06:07;20.10;98.60
24802;DHT22;12898;50.520;12.152;2023-07-24T06:08:33;20.20;98.80
24802;DHT22;12898;50.520;12.152;2023-07-24T06:10:59;20.30;98.80
24802;DHT22;12898;50.520;12.152;2023-07-24T06:13:24;20.50;98.80
24802;DHT22;12898;50.520;12.152;2023-07-24T06:15:52;20.50;98.50
24802;DHT22;12898;50.520;12.152;2023-07-24T06:18:18;20.50;98.40
24802;DHT22;12898;50.520;12.152;2023-07-24T06:20:44;20.50;98.20
24802;DHT22;12898;50.520;12.152;2023-07-24T06:23:09;20.60;98.30
24802;DHT22;12898;50.520;12.152;2023-07-24T06:25:35;20.70;99.00
24802;DHT22;12898;50.520;12.152;2023-07-24T06:28:01;20.80;98.90
24802;DHT22;12898;50.520;12.152;2023-07-24T06:30:26;21.00;97.90
24802;DHT22;12898;50.520;12.152;2023-07-24T06:32:52;21.30;97.40
24802;DHT22;12898;50.520;12.152;2023-07-24T06:35:18;21.70;96.50
24802;DHT22;12898;50.520;12.152;2023-07-24T06:37:43;21.80;94.50
24802;DHT22;12898;50.520;12.152;2023-07-24T06:40:10;22.00;94.20
24802;DHT22;12898;50.520;12.152;2023-07-24T06:42:36;22.10;93.20
24802;DHT22;12898;50.520;12.152;2023-07-24T06:45:02;22.20;92.60
24802;DHT22;12898;50.520;12.152;2023-07-24T06:47:27;22.30;91.80
24802;DHT22;12898;50.520;12.152;2023-07-24T06:49:53;22.50;91.30
24802;DHT22;12898;50.520;12.152;2023-07-24T06:52:19;22.50;88.40
24802;DHT22;12898;50.520;12.152;2023-07-24T06:54:44;22.50;85.50
24802;DHT22;12898;50.520;12.152;2023-07-24T06:57:10;22.50;84.70
24802;DHT22;12898;50.520;12.152;2023-07-24T06:59:36;22.60;85.00
24802;DHT22;12898;50.520;12.152;2023-07-24T07:02:01;22.70;84.40
24802;DHT22;12898;50.520;12.152;2023-07-24T07:04:27;22.80;82.20
24802;DHT22;12898;50.520;12.152;2023-07-24T07:06:53;22.70;82.10
24802;DHT22;12898;50.520;12.152;2023-07-24T07:09:18;22.70;82.80
24802;DHT22;12898;50.520;12.152;2023-07-24T07:11:44;22.70;82.80
24802;DHT22;12898;50.520;12.152;2023-07-24T07:14:10;22.60;83.20
24802;DHT22;12898;50.520;12.152;2023-07-24T07:16:36;22.60;84.70
24802;DHT22;12898;50.520;12.152;2023-07-24T07:19:02;22.70;85.60
24802;DHT22;12898;50.520;12.152;2023-07-24T07:21:27;23.00;84.90
24802;DHT22;12898;50.520;12.152;2023-07-24T07:23:53;23.10;84.90
24802;DHT22;12898;50.520;12.152;2023-07-24T07:26:20;23.40;83.40
24802;DHT22;12898;50.520;12.152;2023-07-24T07:28:45;23.50;84.30
24802;DHT22;12898;50.520;12.152;2023-07-24T07:31:11;23.70;84.90
24802;DHT22;12898;50.520;12.152;2023-07-24T07:33:37;23.90;82.30
24802;DHT22;12898;50.520;12.152;2023-07-24T07:36:03;23.80;81.80
24802;DHT22;12898;50.520;12.152;2023-07-24T07:38:32;23.80;82.30
24802;DHT22;12898;50.520;12.152;2023-07-24T07:40:58;23.80;83.20
24802;DHT22;12898;50.520;12.152;2023-07-24T07:43:23;24.00;81.50
24802;DHT22;12898;50.520;12.152;2023-07-24T07:45:49;24.10;82.10
24802;DHT22;12898;50.520;12.152;2023-07-24T07:48:15;24.20;79.70
24802;DHT22;12898;50.520;12.152;2023-07-24T07:50:41;24.20;79.20
24802;DHT22;12898;50.520;12.152;2023-07-24T07:53:06;24.40;80.00
24802;DHT22;12898;50.520;12.152;2023-07-24T07:55:32;24.70;78.20
24802;DHT22;12898;50.520;12.152;2023-07-24T07:57:58;24.90;77.30
24802;DHT22;12898;50.520;12.152;2023-07-24T08:00:23;25.30;73.20
24802;DHT22;12898;50.520;12.152;2023-07-24T08:02:49;25.40;71.40
24802;DHT22;12898;50.520;12.152;2023-07-24T08:05:15;25.40;72.10
24802;DHT22;12898;50.520;12.152;2023-07-24T08:07:41;25.70;71.80
24802;DHT22;12898;50.520;12.152;2023-07-24T08:10:07;25.90;69.40
24802;DHT22;12898;50.520;12.152;2023-07-24T08:12:33;26.00;67.20
24802;DHT22;12898;50.520;12.152;2023-07-24T08:14:58;25.90;66.20
24802;DHT22;12898;50.520;12.152;2023-07-24T08:17:24;25.80;66.90
24802;DHT22;12898;50.520;12.152;2023-07-24T08:19:50;25.90;67.10
24802;DHT22;12898;50.520;12.152;2023-07-24T08:22:15;26.10;67.10
24802;DHT22;12898;50.520;12.152;2023-07-24T08:24:41;26.20;64.70
24802;DHT22;12898;50.520;12.152;2023-07-24T08:27:07;25.80;65.50
24802;DHT22;12898;50.520;12.152;2023-07-24T08:29:32;25.60;64.70
24802;DHT22;12898;50.520;12.152;2023-07-24T08:32:00;25.30;66.10
24802;DHT22;12898;50.520;12.152;2023-07-24T08:34:25;25.10;66.80
24802;DHT22;12898;50.520;12.152;2023-07-24T08:36:51;24.80;67.30
24802;DHT22;12898;50.520;12.152;2023-07-24T08:39:17;24.50;68.00
24802;DHT22;12898;50.520;12.152;2023-07-24T08:41:42;24.20;73.30
24802;DHT22;12898;50.520;12.152;2023-07-24T08:44:08;23.80;79.30
24802;DHT22;12898;50.520;12.152;2023-07-24T08:46:38;23.60;84.30
24802;DHT22;12898;50.520;12.152;2023-07-24T08:49:15;23.50;89.00
24802;DHT22;12898;50.520;12.152;2023-07-24T08:51:41;23.50;87.20
24802;DHT22;12898;50.520;12.152;2023-07-24T08:54:08;23.70;86.40
24802;DHT22;12898;50.520;12.152;2023-07-24T08:56:36;24.00;83.60
24802;DHT22;12898;50.520;12.152;2023-07-24T08:59:02;24.30;81.50
24802;DHT22;12898;50.520;12.152;2023-07-24T09:01:28;24.70;80.00
24802;DHT22;12898;50.520;12.152;2023-07-24T09:03:54;25.00;77.50
24802;DHT22;12898;50.520;12.152;2023-07-24T09:06:19;25.10;73.10
24802;DHT22;12898;50.520;12.152;2023-07-24T09:08:45;25.10;71.80
24802;DHT22;12898;50.520;12.152;2023-07-24T09:11:13;24.90;72.40
24802;DHT22;12898;50.520;12.152;2023-07-24T09:13:42;24.60;71.90
24802;DHT22;12898;50.520;12.152;2023-07-24T09:16:08;24.50;74.60
24802;DHT22;12898;50.520;12.152;2023-07-24T09:18:41;24.70;74.80
24802;DHT22;12898;50.520;12.152;2023-07-24T09:21:09;24.90;74.20
24802;DHT22;12898;50.520;12.152;2023-07-24T09:23:37;25.30;74.20
24802;DHT22;12898;50.520;12.152;2023-07-24T09:26:06;25.50;70.50
24802;DHT22;12898;50.520;12.152;2023-07-24T09:28:33;25.60;69.90
24802;DHT22;12898;50.520;12.152;2023-07-24T09:31:00;25.70;69.80
24802;DHT22;12898;50.520;12.152;2023-07-24T09:33:36;25.80;69.50
24802;DHT22;12898;50.520;12.152;2023-07-24T09:36:04;25.80;69.20
24802;DHT22;12898;50.520;12.152;2023-07-24T09:38:34;25.80;70.30
24802;DHT22;12898;50.520;12.152;2023-07-24T09:41:01;25.70;68.90
24802;DHT22;12898;50.520;12.152;2023-07-24T09:43:28;25.80;70.50
24802;DHT22;12898;50.520;12.152;2023-07-24T09:45:55;25.90;69.40
24802;DHT22;12898;50.520;12.152;2023-07-24T09:48:24;25.90;69.80
24802;DHT22;12898;50.520;12.152;2023-07-24T09:50:56;25.90;69.90
24802;DHT22;12898;50.520;12.152;2023-07-24T09:53:43;26.10;70.10
24802;DHT22;12898;50.520;12.152;2023-07-24T09:56:10;26.20;69.10
24802;DHT22;12898;50.520;12.152;2023-07-24T09:58:38;26.50;68.60
24802;DHT22;12898;50.520;12.152;2023-07-24T10:01:07;26.70;69.20
24802;DHT22;12898;50.520;12.152;2023-07-24T10:03:53;27.10;65.60
24802;DHT22;12898;50.520;12.152;2023-07-24T10:06:20;27.70;65.10
24802;DHT22;12898;50.520;12.152;2023-07-24T10:08:47;28.20;62.70
24802;DHT22;12898;50.520;12.152;2023-07-24T10:11:14;28.40;60.20
24802;DHT22;12898;50.520;12.152;2023-07-24T10:13:41;28.70;59.70
24802;DHT22;12898;50.520;12.152;2023-07-24T10:16:07;29.10;59.40
24802;DHT22;12898;50.520;12.152;2023-07-24T10:18:34;29.30;58.40
24802;DHT22;12898;50.520;12.152;2023-07-24T10:21:06;29.30;57.10
24802;DHT22;12898;50.520;12.152;2023-07-24T10:23:43;29.70;56.70
24802;DHT22;12898;50.520;12.152;2023-07-24T10:26:11;30.30;56.00
24802;DHT22;12898;50.520;12.152;2023-07-24T10:28:39;30.50;54.70
24802;DHT22;12898;50.520;12.152;2023-07-24T10:31:19;29.80;54.10
24802;DHT22;12898;50.520;12.152;2023-07-24T10:33:49;29.10;55.30
24802;DHT22;12898;50.520;12.152;2023-07-24T10:36:21;28.20;57.10
24802;DHT22;12898;50.520;12.152;2023-07-24T10:38:53;27.40;58.60
24802;DHT22;12898;50.520;12.152;2023-07-24T10:41:20;26.60;63.10
24802;DHT22;12898;50.520;12.152;2023-07-24T10:43:48;25.70;69.90
24802;DHT22;12898;50.520;12.152;2023-07-24T10:46:16;24.70;86.00
24802;DHT22;12898;50.520;12.152;2023-07-24T10:48:45;23.40;96.80
24802;DHT22;12898;50.520;12.152;2023-07-24T10:51:12;22.50;99.90
24802;DHT22;12898;50.520;12.152;2023-07-24T10:53:45;21.70;99.90
24802;DHT22;12898;50.520;12.152;2023-07-24T10:56:12;21.40;99.90
24802;DHT22;12898;50.520;12.152;2023-07-24T10:58:39;21.10;99.90
24802;DHT22;12898;50.520;12.152;2023-07-24T11:01:07;21.00;99.90
24802;DHT22;12898;50.520;12.152;2023-07-24T11:03:36;20.90;99.90
24802;DHT22;12898;50.520;12.152;2023-07-24T11:06:03;20.70;99.90
24802;DHT22;12898;50.520;12.152;2023-07-24T11:08:29;20.50;99.90
24802;DHT22;12898;50.520;12.152;2023-07-24T11:10:57;20.30;99.90
24802;DHT22;12898;50.520;12.152;2023-07-24T11:13:25;20.20;99.90
24802;DHT22;12898;50.520;12.152;2023-07-24T11:15:52;20.00;99.90
24802;DHT22;12898;50.520;12.152;2023-07-24T11:18:18;19.90;99.90
24802;DHT22;12898;50.520;12.152;2023-07-24T11:20:49;19.80;99.90
24802;DHT22;12898;50.520;12.152;2023-07-24T11:23:16;19.60;99.90
24802;DHT22;12898;50.520;12.152;2023-07-24T11:25:43;19.60;99.90
24802;DHT22;12898;50.520;12.152;2023-07-24T11:28:11;19.80;99.90
24802;DHT22;12898;50.520;12.152;2023-07-24T11:30:38;20.10;99.90
24802;DHT22;12898;50.520;12.152;2023-07-24T11:33:07;20.50;99.90
24802;DHT22;12898;50.520;12.152;2023-07-24T11:35:35;21.00;99.90
24802;DHT22;12898;50.520;12.152;2023-07-24T11:38:02;21.50;99.90
24802;DHT22;12898;50.520;12.152;2023-07-24T11:40:42;21.80;99.90
24802;DHT22;12898;50.520;12.152;2023-07-24T11:43:20;22.30;99.90
24802;DHT22;12898;50.520;12.152;2023-07-24T11:45:48;22.70;99.90
24802;DHT22;12898;50.520;12.152;2023-07-24T11:48:18;23.00;99.90
24802;DHT22;12898;50.520;12.152;2023-07-24T11:50:50;22.90;99.90
24802;DHT22;12898;50.520;12.152;2023-07-24T11:53:19;22.90;99.90
24802;DHT22;12898;50.520;12.152;2023-07-24T11:55:46;23.00;99.90
24802;DHT22;12898;50.520;12.152;2023-07-24T11:58:14;23.00;99.90
24802;DHT22;12898;50.520;12.152;2023-07-24T12:00:41;23.30;99.90
24802;DHT22;12898;50.520;12.152;2023-07-24T12:03:07;23.60;99.90
24802;DHT22;12898;50.520;12.152;2023-07-24T12:05:40;24.00;99.90
24802;DHT22;12898;50.520;12.152;2023-07-24T12:08:07;24.60;99.90
24802;DHT22;12898;50.520;12.152;2023-07-24T12:10:36;24.70;99.90
24802;DHT22;12898;50.520;12.152;2023-07-24T12:13:03;24.90;99.90
24802;DHT22;12898;50.520;12.152;2023-07-24T12:15:28;25.10;99.90
24802;DHT22;12898;50.520;12.152;2023-07-24T12:17:54;25.30;99.90
24802;DHT22;12898;50.520;12.152;2023-07-24T12:20:22;25.40;99.90
24802;DHT22;12898;50.520;12.152;2023-07-24T12:22:48;25.70;99.90
24802;DHT22;12898;50.520;12.152;2023-07-24T12:25:14;25.70;99.90
24802;DHT22;12898;50.520;12.152;2023-07-24T12:27:41;25.80;99.90
24802;DHT22;12898;50.520;12.152;2023-07-24T12:30:07;25.90;99.90
24802;DHT22;12898;50.520;12.152;2023-07-24T12:32:34;25.80;99.90
24802;DHT22;12898;50.520;12.152;2023-07-24T12:35:00;25.90;99.90
24802;DHT22;12898;50.520;12.152;2023-07-24T12:37:25;26.00;99.90
24802;DHT22;12898;50.520;12.152;2023-07-24T12:39:51;25.90;99.90
24802;DHT22;12898;50.520;12.152;2023-07-24T12:42:17;25.70;99.20
24802;DHT22;12898;50.520;12.152;2023-07-24T12:44:43;25.50;99.90
24802;DHT22;12898;50.520;12.152;2023-07-24T12:47:10;25.20;98.90
24802;DHT22;12898;50.520;12.152;2023-07-24T12:49:36;25.20;99.90
24802;DHT22;12898;50.520;12.152;2023-07-24T12:52:03;25.40;99.90
24802;DHT22;12898;50.520;12.152;2023-07-24T12:54:29;25.70;99.90
24802;DHT22;12898;50.520;12.152;2023-07-24T12:56:55;25.70;98.50
24802;DHT22;12898;50.520;12.152;2023-07-24T12:59:21;25.40;96.20
24802;DHT22;12898;50.520;12.152;2023-07-24T13:01:46;25.20;95.80
24802;DHT22;12898;50.520;12.152;2023-07-24T13:04:12;25.20;98.80
24802;DHT22;12898;50.520;12.152;2023-07-24T13:06:38;25.60;99.20
24802;DHT22;12898;50.520;12.152;2023-07-24T13:09:07;25.60;94.60
24802;DHT22;12898;50.520;12.152;2023-07-24T13:11:33;25.40;95.40
24802;DHT22;12898;50.520;12.152;2023-07-24T13:13:58;25.20;95.60
24802;DHT22;12898;50.520;12.152;2023-07-24T13:16:24;25.10;94.90
24802;DHT22;12898;50.520;12.152;2023-07-24T13:18:50;25.10;96.20
24802;DHT22;12898;50.520;12.152;2023-07-24T13:21:15;24.80;95.50
24802;DHT22;12898;50.520;12.152;2023-07-24T13:23:41;24.80;96.20
24802;DHT22;12898;50.520;12.152;2023-07-24T13:26:07;24.80;96.80
24802;DHT22;12898;50.520;12.152;2023-07-24T13:28:38;24.90;96.90
24802;DHT22;12898;50.520;12.152;2023-07-24T13:31:15;25.00;96.20
24802;DHT22;12898;50.520;12.152;2023-07-24T13:33:42;24.90;95.30
24802;DHT22;12898;50.520;12.152;2023-07-24T13:36:08;24.90;96.40
24802;DHT22;12898;50.520;12.152;2023-07-24T13:38:34;24.80;95.50
24802;DHT22;12898;50.520;12.152;2023-07-24T13:41:00;24.70;95.60
24802;DHT22;12898;50.520;12.152;2023-07-24T13:43:27;24.60;95.40
24802;DHT22;12898;50.520;12.152;2023-07-24T13:45:53;24.50;95.40
24802;DHT22;12898;50.520;12.152;2023-07-24T13:48:18;24.50;95.00
24802;DHT22;12898;50.520;12.152;2023-07-24T13:50:44;24.40;94.70
24802;DHT22;12898;50.520;12.152;2023-07-24T13:53:10;24.50;94.00
24802;DHT22;12898;50.520;12.152;2023-07-24T13:55:36;24.50;95.40
24802;DHT22;12898;50.520;12.152;2023-07-24T13:58:01;24.50;94.50
24802;DHT22;12898;50.520;12.152;2023-07-24T14:00:27;24.50;95.50
24802;DHT22;12898;50.520;12.152;2023-07-24T14:02:53;24.70;95.30
24802;DHT22;12898;50.520;12.152;2023-07-24T14:05:18;24.90;94.00
24802;DHT22;12898;50.520;12.152;2023-07-24T14:07:44;24.90;92.60
24802;DHT22;12898;50.520;12.152;2023-07-24T14:10:10;25.00;92.60
24802;DHT22;12898;50.520;12.152;2023-07-24T14:12:36;25.10;92.70
24802;DHT22;12898;50.520;12.152;2023-07-24T14:15:02;24.90;91.60
24802;DHT22;12898;50.520;12.152;2023-07-24T14:17:28;24.90;92.80
24802;DHT22;12898;50.520;12.152;2023-07-24T14:19:54;24.80;91.90
24802;DHT22;12898;50.520;12.152;2023-07-24T14:22:20;24.80;91.20
24802;DHT22;12898;50.520;12.152;2023-07-24T14:24:46;24.70;91.40
24802;DHT22;12898;50.520;12.152;2023-07-24T14:27:12;25.00;91.70
24802;DHT22;12898;50.520;12.152;2023-07-24T14:29:39;25.10;86.30
24802;DHT22;12898;50.520;12.152;2023-07-24T14:32:05;25.50;86.80
24802;DHT22;12898;50.520;12.152;2023-07-24T14:34:31;25.90;85.10
24802;DHT22;12898;50.520;12.152;2023-07-24T14:36:57;26.50;83.60
24802;DHT22;12898;50.520;12.152;2023-07-24T14:39:23;26.80;77.70
24802;DHT22;12898;50.520;12.152;2023-07-24T14:41:49;27.10;77.50
24802;DHT22;12898;50.520;12.152;2023-07-24T14:44:14;27.30;75.20
24802;DHT22;12898;50.520;12.152;2023-07-24T14:46:40;27.60;73.60
24802;DHT22;12898;50.520;12.152;2023-07-24T14:49:06;27.60;69.90
24802;DHT22;12898;50.520;12.152;2023-07-24T14:51:31;27.10;66.50
24802;DHT22;12898;50.520;12.152;2023-07-24T14:53:57;27.20;69.30
24802;DHT22;12898;50.520;12.152;2023-07-24T14:56:23;27.50;67.60
24802;DHT22;12898;50.520;12.152;2023-07-24T14:58:48;27.60;64.60
24802;DHT22;12898;50.520;12.152;2023-07-24T15:01:14;27.50;62.60
24802;DHT22;12898;50.520;12.152;2023-07-24T15:03:40;27.30;62.90
24802;DHT22;12898;50.520;12.152;2023-07-24T15:06:05;27.20;62.80
24802;DHT22;12898;50.520;12.152;2023-07-24T15:08:33;27.10;63.60
24802;DHT22;12898;50.520;12.152;2023-07-24T15:10:59;27.10;62.70
24802;DHT22;12898;50.520;12.152;2023-07-24T15:13:24;27.00;62.90
24802;DHT22;12898;50.520;12.152;2023-07-24T15:15:50;27.00;62.90